Gillette, WY

4:30 AM MDT on October 25, 2014 (GMT -0600)
Gillette-Campbell County | Change Station
CLOSE
Current Station
Airport
Location: Gillette,
Elevation: 4364 ft
Nearby Weather Stations

Elev 4364 ft 44.34 °N, 105.54 °W | Updated 37 minutes ago

Partly Cloudy
Partly Cloudy
30 °F
Feels Like 25 °F
N
5
Wind Variable Wind from South

Today
High -- | Low -- °F
--% Chance of Precip.
Yesterday
High -- | Low -- °F
Precip. -- in
7:30 AM 6:01 PM
New Moon, 2% visible
Pressure 30.12 in
Visibility 10.0 miles
Clouds Clear
Windchill 25 °F
Dew Point 26 °F
Humidity 85%
Rainfall 0.00 in
Snow Depth Not available.
UV 0 out of 12
Pollen 1.60 out of 12
Air Quality Not available.
Flu Activity Sporadic
METAR KGCC 250953Z AUTO 17004KT 10SM CLR M01/M03 A3013 RMK AO2 SLP198 T10111033

More Conditions Fewer Conditions

Pressure 30.12 in
Visibility 10.0 miles
Clouds Clear
Windchill 25 °F
Dew Point 26 °F
Humidity 85%
Rainfall 0.00 in
Snow Depth Not available.
UV 0 out of 12
Pollen 1.60 out of 12
Air Quality Not available.
Flu Activity Sporadic
METAR KGCC 250953Z AUTO 17004KT 10SM CLR M01/M03 A3013 RMK AO2 SLP198 T10111033

More Conditions Fewer Conditions

10-Day Weather Forecast

Almanac

Astronomy

Oct. 25, 2014 Rise Set
Actual Time 7:30 AM MDT 6:01 PM MDT
Civil Twilight 7:01 AM MDT 6:31 PM MDT
Nautical Twilight 6:26 AM MDT 7:05 PM MDT
Astronomical Twilight 5:53 AM MDT 7:39 PM MDT
Moon 9:15 AM MDT 7:23 PM MDT
Length of Visible Light 11h 30m
Length of Day
10h 30m
Tomorrow will be 2m 51s shorter.
New Moon, 2% of the Moon is Illuminated
Today
New Moon
Oct 30
First Quarter
Nov 6
Full
Nov 14
Last Quarter
Nov 22
New

Today's Extremes

State Highs State Lows

Community

WunderPhotos

Upload Photos

1,764,806 photos uploaded!

Nearby

Snow Depth

Station Depth Elevation
Cole Canyon 1 in 5910 ft
Cloud Peak Reservoir 0 in 9860 ft
Big Goose 0 in 7990 ft
Powder River Pass 0 in 9480 ft
Dome Lake 0 in 8880 ft

Earthquake Activity

City Distance Mag. Time & Date
No recent earthquake activity has been reported nearby.
Minimum magnitude displayed is 2.5.

Coastal Water Temperatures

Place Temperature
No Stations Reporting

Nearby Weather Stations